sensor_id;sensor_type;location;lat;lon;timestamp;P1;durP1;ratioP1;P2;durP2;ratioP2
20984;SDS011;10651;47.552;7.606;2023-05-27T07:09:19;22.45;;;8.57;;
20984;SDS011;10651;47.552;7.606;2023-05-27T07:17:29;29.50;;;8.90;;
20984;SDS011;10651;47.552;7.606;2023-05-27T08:58:10;21.42;;;9.38;;
20984;SDS011;10651;47.552;7.606;2023-05-27T09:00:38;22.77;;;9.50;;
20984;SDS011;10651;47.552;7.606;2023-05-27T09:05:40;27.85;;;9.68;;
20984;SDS011;10651;47.552;7.606;2023-05-27T09:31:24;23.83;;;9.68;;
20984;SDS011;10651;47.552;7.606;2023-05-27T09:33:50;25.67;;;10.50;;
20984;SDS011;10651;47.552;7.606;2023-05-27T09:36:19;18.60;;;9.43;;
20984;SDS011;10651;47.552;7.606;2023-05-27T09:38:47;22.30;;;9.65;;
20984;SDS011;10651;47.552;7.606;2023-05-27T09:41:13;23.05;;;8.93;;
20984;SDS011;10651;47.552;7.606;2023-05-27T09:43:39;19.17;;;9.35;;
20984;SDS011;10651;47.552;7.606;2023-05-27T09:46:07;15.40;;;8.95;;
20984;SDS011;10651;47.552;7.606;2023-05-27T09:48:37;25.08;;;8.68;;
20984;SDS011;10651;47.552;7.606;2023-05-27T09:51:04;24.92;;;9.80;;
20984;SDS011;10651;47.552;7.606;2023-05-27T09:53:30;15.50;;;8.25;;
20984;SDS011;10651;47.552;7.606;2023-05-27T09:55:58;18.95;;;8.45;;
20984;SDS011;10651;47.552;7.606;2023-05-27T09:58:24;18.17;;;7.95;;
20984;SDS011;10651;47.552;7.606;2023-05-27T10:00:50;24.27;;;9.38;;
20984;SDS011;10651;47.552;7.606;2023-05-27T10:03:17;18.20;;;9.15;;
20984;SDS011;10651;47.552;7.606;2023-05-27T10:05:46;17.45;;;8.82;;
20984;SDS011;10651;47.552;7.606;2023-05-27T10:13:47;16.65;;;8.55;;
20984;SDS011;10651;47.552;7.606;2023-05-27T10:29:56;20.17;;;8.05;;
20984;SDS011;10651;47.552;7.606;2023-05-27T12:01:41;19.52;;;8.18;;
20984;SDS011;10651;47.552;7.606;2023-05-27T12:19:42;16.63;;;8.07;;
20984;SDS011;10651;47.552;7.606;2023-05-27T12:22:15;30.75;;;7.90;;
20984;SDS011;10651;47.552;7.606;2023-05-27T12:24:53;13.15;;;7.25;;
20984;SDS011;10651;47.552;7.606;2023-05-27T12:43:12;13.93;;;7.43;;
20984;SDS011;10651;47.552;7.606;2023-05-27T12:45:42;21.63;;;8.70;;
20984;SDS011;10651;47.552;7.606;2023-05-27T12:48:08;13.15;;;7.55;;
20984;SDS011;10651;47.552;7.606;2023-05-27T12:50:34;18.02;;;7.90;;
20984;SDS011;10651;47.552;7.606;2023-05-27T12:53:03;23.85;;;7.90;;
20984;SDS011;10651;47.552;7.606;2023-05-27T12:55:29;25.95;;;7.45;;
20984;SDS011;10651;47.552;7.606;2023-05-27T13:18:48;12.88;;;6.88;;
20984;SDS011;10651;47.552;7.606;2023-05-27T13:21:26;14.68;;;7.22;;
20984;SDS011;10651;47.552;7.606;2023-05-27T13:44:38;16.90;;;7.00;;
20984;SDS011;10651;47.552;7.606;2023-05-27T14:18:15;13.35;;;6.97;;
20984;SDS011;10651;47.552;7.606;2023-05-27T14:26:16;13.50;;;7.50;;
20984;SDS011;10651;47.552;7.606;2023-05-27T14:28:47;11.95;;;6.93;;
20984;SDS011;10651;47.552;7.606;2023-05-27T14:59:35;18.65;;;7.60;;
20984;SDS011;10651;47.552;7.606;2023-05-27T15:02:09;12.02;;;6.80;;
20984;SDS011;10651;47.552;7.606;2023-05-27T15:17:35;14.52;;;6.65;;
20984;SDS011;10651;47.552;7.606;2023-05-27T15:20:39;12.65;;;6.85;;
20984;SDS011;10651;47.552;7.606;2023-05-27T16:51:16;12.15;;;6.75;;
20984;SDS011;10651;47.552;7.606;2023-05-27T16:53:46;14.82;;;7.13;;
20984;SDS011;10651;47.552;7.606;2023-05-27T17:01:41;15.07;;;7.35;;
20984;SDS011;10651;47.552;7.606;2023-05-27T17:04:07;14.23;;;6.70;;
20984;SDS011;10651;47.552;7.606;2023-05-27T17:06:32;13.88;;;7.68;;
20984;SDS011;10651;47.552;7.606;2023-05-27T17:08:59;16.48;;;7.00;;
20984;SDS011;10651;47.552;7.606;2023-05-27T17:11:30;15.15;;;7.18;;
20984;SDS011;10651;47.552;7.606;2023-05-27T17:14:01;11.98;;;6.40;;
20984;SDS011;10651;47.552;7.606;2023-05-27T17:16:27;12.35;;;6.90;;
20984;SDS011;10651;47.552;7.606;2023-05-27T17:18:53;15.05;;;6.35;;
20984;SDS011;10651;47.552;7.606;2023-05-27T17:21:18;16.67;;;7.40;;
20984;SDS011;10651;47.552;7.606;2023-05-27T17:26:27;10.50;;;6.72;;
20984;SDS011;10651;47.552;7.606;2023-05-27T17:36:42;14.15;;;7.25;;
20984;SDS011;10651;47.552;7.606;2023-05-27T17:45:00;17.42;;;8.18;;
20984;SDS011;10651;47.552;7.606;2023-05-27T17:50:05;12.68;;;6.82;;
20984;SDS011;10651;47.552;7.606;2023-05-27T17:52:39;11.95;;;6.85;;
20984;SDS011;10651;47.552;7.606;2023-05-27T17:55:05;16.77;;;7.78;;
20984;SDS011;10651;47.552;7.606;2023-05-27T18:00:10;13.10;;;7.25;;
20984;SDS011;10651;47.552;7.606;2023-05-27T18:03:00;14.82;;;6.93;;
20984;SDS011;10651;47.552;7.606;2023-05-27T18:05:26;27.52;;;8.65;;
20984;SDS011;10651;47.552;7.606;2023-05-27T18:07:52;14.52;;;8.65;;
20984;SDS011;10651;47.552;7.606;2023-05-27T18:15:49;21.60;;;7.95;;
20984;SDS011;10651;47.552;7.606;2023-05-27T18:18:30;18.10;;;8.93;;
20984;SDS011;10651;47.552;7.606;2023-05-27T18:20:56;17.60;;;8.82;;
20984;SDS011;10651;47.552;7.606;2023-05-27T18:31:16;14.05;;;7.63;;
20984;SDS011;10651;47.552;7.606;2023-05-27T18:36:52;19.40;;;8.35;;
20984;SDS011;10651;47.552;7.606;2023-05-27T18:39:18;21.35;;;8.57;;
20984;SDS011;10651;47.552;7.606;2023-05-27T18:41:47;13.45;;;8.00;;
20984;SDS011;10651;47.552;7.606;2023-05-27T18:44:14;12.75;;;6.93;;
20984;SDS011;10651;47.552;7.606;2023-05-27T18:46:40;14.15;;;8.40;;
20984;SDS011;10651;47.552;7.606;2023-05-27T18:49:06;24.33;;;8.77;;
20984;SDS011;10651;47.552;7.606;2023-05-27T18:51:33;16.58;;;7.97;;
20984;SDS011;10651;47.552;7.606;2023-05-27T20:27:56;17.60;;;8.63;;
20984;SDS011;10651;47.552;7.606;2023-05-27T20:30:22;20.00;;;7.97;;
20984;SDS011;10651;47.552;7.606;2023-05-27T20:32:49;17.02;;;7.78;;
20984;SDS011;10651;47.552;7.606;2023-05-27T20:35:30;15.63;;;7.65;;
20984;SDS011;10651;47.552;7.606;2023-05-27T20:37:56;15.07;;;7.60;;
20984;SDS011;10651;47.552;7.606;2023-05-27T20:40:22;13.23;;;7.55;;
20984;SDS011;10651;47.552;7.606;2023-05-27T20:42:57;14.20;;;7.65;;
20984;SDS011;10651;47.552;7.606;2023-05-27T20:45:23;17.65;;;7.90;;
20984;SDS011;10651;47.552;7.606;2023-05-27T20:47:49;18.52;;;7.78;;
20984;SDS011;10651;47.552;7.606;2023-05-27T20:50:17;15.68;;;7.35;;
20984;SDS011;10651;47.552;7.606;2023-05-27T20:52:47;16.55;;;8.25;;
20984;SDS011;10651;47.552;7.606;2023-05-27T20:55:19;18.85;;;7.93;;
20984;SDS011;10651;47.552;7.606;2023-05-27T20:57:48;19.38;;;8.32;;
20984;SDS011;10651;47.552;7.606;2023-05-27T21:00:14;18.00;;;9.50;;
20984;SDS011;10651;47.552;7.606;2023-05-27T21:02:43;19.67;;;9.70;;
20984;SDS011;10651;47.552;7.606;2023-05-27T21:05:14;14.57;;;8.77;;
20984;SDS011;10651;47.552;7.606;2023-05-27T21:07:46;18.67;;;9.77;;
20984;SDS011;10651;47.552;7.606;2023-05-27T21:10:15;16.17;;;9.35;;
20984;SDS011;10651;47.552;7.606;2023-05-27T21:12:48;19.90;;;9.35;;
20984;SDS011;10651;47.552;7.606;2023-05-27T21:15:14;23.15;;;8.95;;
20984;SDS011;10651;47.552;7.606;2023-05-27T21:17:42;17.80;;;9.52;;
20984;SDS011;10651;47.552;7.606;2023-05-27T21:20:11;16.38;;;9.15;;
20984;SDS011;10651;47.552;7.606;2023-05-27T21:22:37;18.55;;;8.90;;
20984;SDS011;10651;47.552;7.606;2023-05-27T21:27:57;28.52;;;10.85;;
20984;SDS011;10651;47.552;7.606;2023-05-27T21:30:25;28.73;;;10.43;;
20984;SDS011;10651;47.552;7.606;2023-05-27T21:32:54;21.45;;;10.18;;
20984;SDS011;10651;47.552;7.606;2023-05-27T21:35:27;18.55;;;10.00;;
20984;SDS011;10651;47.552;7.606;2023-05-27T21:37:53;20.65;;;10.50;;
20984;SDS011;10651;47.552;7.606;2023-05-27T21:40:33;25.25;;;9.52;;
20984;SDS011;10651;47.552;7.606;2023-05-27T21:43:08;18.15;;;9.27;;
20984;SDS011;10651;47.552;7.606;2023-05-27T21:45:42;16.23;;;8.35;;
20984;SDS011;10651;47.552;7.606;2023-05-27T21:48:13;18.00;;;7.55;;
20984;SDS011;10651;47.552;7.606;2023-05-27T21:50:42;17.75;;;8.80;;
20984;SDS011;10651;47.552;7.606;2023-05-27T21:53:08;16.73;;;8.40;;
20984;SDS011;10651;47.552;7.606;2023-05-27T21:55:33;15.18;;;8.07;;
20984;SDS011;10651;47.552;7.606;2023-05-27T21:57:59;13.90;;;7.78;;
20984;SDS011;10651;47.552;7.606;2023-05-27T22:00:25;18.02;;;7.47;;
20984;SDS011;10651;47.552;7.606;2023-05-27T22:02:51;15.82;;;7.57;;
20984;SDS011;10651;47.552;7.606;2023-05-27T22:05:17;19.08;;;8.18;;
20984;SDS011;10651;47.552;7.606;2023-05-27T22:07:46;14.68;;;8.15;;
20984;SDS011;10651;47.552;7.606;2023-05-27T22:10:12;22.90;;;8.82;;
20984;SDS011;10651;47.552;7.606;2023-05-27T22:12:38;17.17;;;7.97;;
20984;SDS011;10651;47.552;7.606;2023-05-27T22:15:03;19.33;;;8.32;;
20984;SDS011;10651;47.552;7.606;2023-05-27T22:17:30;20.75;;;7.78;;
20984;SDS011;10651;47.552;7.606;2023-05-27T22:19:55;19.30;;;8.23;;
20984;SDS011;10651;47.552;7.606;2023-05-27T22:22:21;18.05;;;7.72;;
20984;SDS011;10651;47.552;7.606;2023-05-27T22:24:48;22.55;;;8.38;;
20984;SDS011;10651;47.552;7.606;2023-05-27T22:27:15;16.27;;;8.13;;
20984;SDS011;10651;47.552;7.606;2023-05-27T22:29:41;20.70;;;8.45;;
20984;SDS011;10651;47.552;7.606;2023-05-27T22:32:06;16.48;;;7.90;;
20984;SDS011;10651;47.552;7.606;2023-05-27T22:34:32;19.92;;;8.13;;
20984;SDS011;10651;47.552;7.606;2023-05-27T22:36:58;17.48;;;8.40;;
20984;SDS011;10651;47.552;7.606;2023-05-27T22:39:24;15.75;;;7.43;;
20984;SDS011;10651;47.552;7.606;2023-05-27T22:41:49;20.90;;;8.15;;
20984;SDS011;10651;47.552;7.606;2023-05-27T22:44:15;18.67;;;8.77;;
20984;SDS011;10651;47.552;7.606;2023-05-27T22:46:41;19.95;;;8.65;;
20984;SDS011;10651;47.552;7.606;2023-05-27T22:49:07;18.70;;;7.75;;
20984;SDS011;10651;47.552;7.606;2023-05-27T22:51:34;18.90;;;8.05;;
20984;SDS011;10651;47.552;7.606;2023-05-27T22:54:02;21.73;;;8.77;;
20984;SDS011;10651;47.552;7.606;2023-05-27T22:56:28;18.98;;;8.90;;
20984;SDS011;10651;47.552;7.606;2023-05-27T22:58:54;26.55;;;9.00;;
20984;SDS011;10651;47.552;7.606;2023-05-27T23:01:20;24.00;;;8.18;;
20984;SDS011;10651;47.552;7.606;2023-05-27T23:03:46;21.15;;;8.07;;
20984;SDS011;10651;47.552;7.606;2023-05-27T23:06:12;16.58;;;8.40;;
20984;SDS011;10651;47.552;7.606;2023-05-27T23:08:40;18.05;;;7.60;;
20984;SDS011;10651;47.552;7.606;2023-05-27T23:11:06;17.90;;;8.20;;
20984;SDS011;10651;47.552;7.606;2023-05-27T23:13:32;17.38;;;7.95;;
20984;SDS011;10651;47.552;7.606;2023-05-27T23:15:58;13.77;;;7.78;;
20984;SDS011;10651;47.552;7.606;2023-05-27T23:18:33;17.00;;;7.63;;
20984;SDS011;10651;47.552;7.606;2023-05-27T23:21:00;21.02;;;8.10;;
20984;SDS011;10651;47.552;7.606;2023-05-27T23:23:28;12.48;;;7.15;;
20984;SDS011;10651;47.552;7.606;2023-05-27T23:25:58;17.38;;;7.93;;
20984;SDS011;10651;47.552;7.606;2023-05-27T23:28:24;16.25;;;7.88;;
20984;SDS011;10651;47.552;7.606;2023-05-27T23:30:50;18.30;;;8.00;;
20984;SDS011;10651;47.552;7.606;2023-05-27T23:33:17;14.90;;;7.15;;
20984;SDS011;10651;47.552;7.606;2023-05-27T23:35:48;17.83;;;8.90;;
20984;SDS011;10651;47.552;7.606;2023-05-27T23:38:13;16.13;;;7.80;;
20984;SDS011;10651;47.552;7.606;2023-05-27T23:40:39;19.58;;;8.98;;
20984;SDS011;10651;47.552;7.606;2023-05-27T23:43:05;19.70;;;7.65;;
20984;SDS011;10651;47.552;7.606;2023-05-27T23:45:31;13.50;;;7.63;;
20984;SDS011;10651;47.552;7.606;2023-05-27T23:47:58;21.60;;;8.77;;
20984;SDS011;10651;47.552;7.606;2023-05-27T23:50:25;16.55;;;7.88;;
20984;SDS011;10651;47.552;7.606;2023-05-27T23:52:50;18.50;;;7.72;;
20984;SDS011;10651;47.552;7.606;2023-05-27T23:55:16;18.77;;;7.28;;
20984;SDS011;10651;47.552;7.606;2023-05-27T23:57:43;16.25;;;7.57;;
